This is the latest recevied weather packets stored in our database for station/object 5B4APJ-13. If no packets are shown the sender has not sent any weather packets the latest 10 day(s).
| Time | Temp. | Humidity | Pressure | Rain* | Wind** | Luminosity | Snow |
|---|---|---|---|---|---|---|---|
| 1777597927 | 13.89° C | 64% | 1012.9 hPa | 0 mm | 1.34 m/s, 249° | 0 W/m² | - |
| 1777597627 | 15° C | 62% | 1012.9 hPa | 0 mm | 1.34 m/s, 243° | 0 W/m² | - |
| 1777597326 | 15° C | 61% | 1012.9 hPa | 0 mm | 0.45 m/s, 179° | 0 W/m² | - |
| 1777597026 | 14.44° C | 63% | 1012.7 hPa | 0 mm | 0.45 m/s, 229° | 0 W/m² | - |
| 1777596726 | 15° C | 62% | 1013 hPa | 0 mm | 0.45 m/s, 229° | 0 W/m² | - |
| 1777596426 | 15° C | 63% | 1012.9 hPa | 0 mm | 0.45 m/s, 229° | 0 W/m² | - |
| 1777596127 | 14.44° C | 64% | 1012.8 hPa | 0 mm | 0.45 m/s, 229° | 0 W/m² | - |
| 1777595826 | 13.89° C | 65% | 1013 hPa | 0 mm | 0.45 m/s, 167° | 0 W/m² | - |
| 1777595526 | 13.33° C | 66% | 1013 hPa | 0 mm | 0 m/s | 0 W/m² | - |
| 1777595226 | 13.33° C | 67% | 1012.9 hPa | 0 mm | 0.45 m/s, 235° | 0 W/m² | - |
| 1777594926 | 13.89° C | 66% | 1013.1 hPa | 0 mm | 0.45 m/s, 245° | 0 W/m² | - |
| 1777594626 | 13.33° C | 66% | 1013.1 hPa | 0 mm | 0.89 m/s, 245° | 0 W/m² | - |
| 1777594326 | 12.78° C | 71% | 1013.1 hPa | 0 mm | 0.89 m/s, 246° | 0 W/m² | - |
| 1777594026 | 12.22° C | 73% | 1013.1 hPa | 0 mm | 0.45 m/s, 249° | 0 W/m² | - |
| 1777593726 | 12.78° C | 72% | 1013.2 hPa | 0 mm | 0.45 m/s, 250° | 0 W/m² | - |
| 1777593426 | 12.22° C | 74% | 1013.2 hPa | 0 mm | 0.89 m/s, 254° | 0 W/m² | - |
| 1777593126 | 13.33° C | 70% | 1013.1 hPa | 0 mm | 0.89 m/s, 258° | 0 W/m² | - |
| 1777592826 | 13.89° C | 68% | 1012.8 hPa | 0 mm | 0.45 m/s, 259° | 0 W/m² | - |
| 1777592526 | 13.33° C | 69% | 1013.1 hPa | 0 mm | 0.45 m/s, 172° | 0 W/m² | - |
| 1777592226 | 13.33° C | 70% | 1012.8 hPa | 0 mm | 0.45 m/s, 161° | 0 W/m² | - |
| 1777591926 | 13.33° C | 72% | 1013.3 hPa | 0 mm | 0.45 m/s, 153° | 0 W/m² | - |
| 1777591626 | 13.33° C | 73% | 1012.9 hPa | 0 mm | 0 m/s | 0 W/m² | - |
| 1777591326 | 13.33° C | 73% | 1012.9 hPa | 0 mm | 0.89 m/s, 120° | 0 W/m² | - |
| 1777591026 | 13.33° C | 74% | 1012.9 hPa | 0 mm | 0 m/s | 0 W/m² | - |
| 1777590726 | 13.33° C | 74% | 1012.8 hPa | 0 mm | 0.45 m/s, 188° | 0 W/m² | - |
* Rain latest hour (hover to see other rain measurements)
** Current wind speed in m/s (hover to see current wind gust speed)